Time;durP1;ratioP1;P1;durP2;ratioP2;P2;SDS_P1;SDS_P2;PMS_P1;PMS_P2;Temp;Humidity;BMP_temperature;BMP_pressure;BME280_temperature;BME280_humidity;BME280_pressure;Samples;Min_cycle;Max_cycle;Signal;HPM_P1;HPM_P2
2021/05/15 00:01:28;;;;;;;1.90;0.57;;;8.10;99.90;;;;;;5033326;28;20431;-88
2021/05/15 00:03:56;;;;;;;2.87;0.97;;;;;;;;;;5034238;28;20538;-89
2021/05/15 00:06:22;;;;;;;1.73;0.90;;;10.00;99.90;;;;;;5033279;28;20479;-89
2021/05/15 00:08:49;;;;;;;1.33;1.13;;;;;;;;;;5036011;28;20491;-88
2021/05/15 00:11:17;;;;;;;0.80;0.60;;;;;;;;;;5034982;28;20444;-88
2021/05/15 00:13:43;;;;;;;2.27;0.90;;;9.60;99.90;;;;;;5034763;28;20559;-89
2021/05/15 00:16:13;;;;;;;5.20;0.50;;;9.30;99.90;;;;;;5034669;28;20456;-89
2021/05/15 00:18:41;;;;;;;0.77;0.77;;;9.40;99.90;;;;;;5034777;28;20447;-87
2021/05/15 00:21:07;;;;;;;0.80;0.60;;;9.20;99.90;;;;;;5034745;28;20463;-89
2021/05/15 00:23:33;;;;;;;1.30;0.60;;;9.50;99.90;;;;;;5034822;28;20478;-91
2021/05/15 00:26:00;;;;;;;1.97;0.60;;;;;;;;;;5034601;28;20443;-90
2021/05/15 00:28:28;;;;;;;0.63;0.40;;;9.30;99.90;;;;;;5034126;28;20471;-88
2021/05/15 00:30:55;;;;;;;1.37;0.83;;;;;;;;;;5033374;28;20435;-87
2021/05/15 00:33:21;;;;;;;3.10;0.80;;;;;;;;;;5033953;28;20436;-87
2021/05/15 00:35:49;;;;;;;0.70;0.50;;;8.60;99.90;;;;;;5035242;28;20447;-87
2021/05/15 00:38:15;;;;;;;0.90;0.67;;;;;;;;;;5033764;28;20440;-89
2021/05/15 00:40:45;;;;;;;1.67;0.70;;;9.40;99.90;;;;;;5034274;28;20443;-88
2021/05/15 00:43:11;;;;;;;1.27;0.40;;;;;;;;;;5034471;28;20447;-88
2021/05/15 00:45:38;;;;;;;2.93;0.70;;;;;;;;;;5033174;28;20448;-88
2021/05/15 00:48:05;;;;;;;0.50;0.40;;;9.30;99.90;;;;;;5034168;28;20439;-87
2021/05/15 00:50:32;;;;;;;2.03;0.83;;;9.40;99.90;;;;;;5034278;28;20546;-87
2021/05/15 00:53:05;;;;;;;0.50;0.40;;;9.20;99.90;;;;;;5034043;28;20451;-88
2021/05/15 00:55:33;;;;;;;0.40;0.40;;;;;;;;;;5032703;28;20506;-86
2021/05/15 00:57:59;;;;;;;0.93;0.50;;;8.80;99.90;;;;;;5033744;28;20440;-90
2021/05/15 01:00:26;;;;;;;1.00;0.70;;;;;;;;;;5032797;28;20440;-88
2021/05/15 01:02:52;;;;;;;0.67;0.40;;;9.30;99.90;;;;;;5033928;28;20909;-86
2021/05/15 01:05:19;;;;;;;1.03;0.57;;;;;;;;;;5033859;28;20436;-90
2021/05/15 01:07:47;;;;;;;1.83;0.83;;;9.50;99.90;;;;;;5033844;28;20529;-88
2021/05/15 01:10:16;;;;;;;0.80;0.40;;;9.30;99.90;;;;;;5039064;28;20478;-87
2021/05/15 01:12:48;;;;;;;5.70;0.80;;;9.60;99.90;;;;;;5039666;28;20456;-88
2021/05/15 01:15:18;;;;;;;1.30;0.70;;;9.20;99.90;;;;;;5032552;28;20451;-86
2021/05/15 01:17:51;;;;;;;2.37;0.70;;;9.40;99.90;;;;;;5034288;28;20951;-88
2021/05/15 01:20:18;;;;;;;0.60;0.60;;;;;;;;;;5032790;28;20480;-87
2021/05/15 01:22:46;;;;;;;1.10;0.77;;;9.30;99.90;;;;;;5033370;28;20570;-88
2021/05/15 01:25:13;;;;;;;1.10;0.63;;;9.20;99.90;;;;;;5034169;28;20861;-90
2021/05/15 01:27:40;;;;;;;1.20;0.70;;;9.10;99.90;;;;;;5033208;28;20457;-86
2021/05/15 01:30:08;;;;;;;1.13;0.40;;;9.10;99.90;;;;;;5032330;28;20498;-87
2021/05/15 01:32:36;;;;;;;0.63;0.40;;;9.20;99.90;;;;;;5033177;28;20451;-87
2021/05/15 01:35:03;;;;;;;1.80;0.60;;;8.90;99.90;;;;;;5031567;28;20815;-86
2021/05/15 01:37:33;;;;;;;1.73;1.20;;;8.90;99.90;;;;;;5033384;28;20443;-88
2021/05/15 01:40:01;;;;;;;0.60;0.50;;;8.90;99.90;;;;;;5033381;28;20447;-88
2021/05/15 01:42:27;;;;;;;0.90;0.60;;;;;;;;;;5032936;28;20447;-88
2021/05/15 01:44:53;;;;;;;1.17;0.53;;;8.80;99.90;;;;;;5032115;28;20440;-88
2021/05/15 01:47:20;;;;;;;2.20;0.60;;;;;;;;;;5032981;28;20498;-90
2021/05/15 01:49:49;;;;;;;0.93;0.50;;;8.90;99.90;;;;;;5033477;28;20491;-90
2021/05/15 01:52:16;;;;;;;1.20;0.80;;;;;;;;;;5032849;28;20444;-89
2021/05/15 01:54:43;;;;;;;0.63;0.50;;;8.90;99.90;;;;;;5032934;28;20484;-89
2021/05/15 01:57:10;;;;;;;1.23;0.83;;;8.70;99.90;;;;;;5032896;28;20451;-91
2021/05/15 01:59:37;;;;;;;0.60;0.40;;;8.50;99.90;;;;;;5032560;28;20447;-89
2021/05/15 02:02:06;;;;;;;0.90;0.70;;;9.00;99.90;;;;;;5032883;28;20444;-90
2021/05/15 02:04:32;;;;;;;1.93;1.00;;;;;;;;;;5032900;28;20447;-90
2021/05/15 02:06:59;;;;;;;1.80;0.77;;;;;;;;;;5032556;28;21085;-88
2021/05/15 02:09:26;;;;;;;3.90;0.93;;;;;;;;;;5032517;28;20487;-89
2021/05/15 02:11:52;;;;;;;0.80;0.60;;;;;;;;;;5032879;28;20581;-90
2021/05/15 02:14:19;;;;;;;2.20;0.60;;;8.60;99.90;;;;;;5031640;28;20447;-90
2021/05/15 02:16:46;;;;;;;1.17;0.47;;;;;;;;;;5032513;28;20451;-89
2021/05/15 02:19:13;;;;;;;2.97;0.90;;;;;;;;;;5033600;28;20505;-88
2021/05/15 02:21:39;;;;;;;1.50;0.80;;;8.70;99.90;;;;;;5032224;28;20832;-88
2021/05/15 02:24:08;;;;;;;1.83;0.70;;;8.60;99.90;;;;;;5032515;28;20996;-88
2021/05/15 02:26:35;;;;;;;1.30;0.90;;;9.00;99.90;;;;;;5032236;28;20448;-89
2021/05/15 02:29:02;;;;;;;0.67;0.67;;;;;;;;;;5031290;28;20502;-90
2021/05/15 02:31:29;;;;;;;2.03;0.80;;;8.80;99.90;;;;;;5032444;28;20440;-89
2021/05/15 02:33:55;;;;;;;0.80;0.70;;;8.80;99.90;;;;;;5033009;28;20522;-86
2021/05/15 02:36:24;;;;;;;3.33;0.90;;;8.70;99.90;;;;;;5032377;28;21074;-87
2021/05/15 02:38:51;;;;;;;1.10;0.67;;;;;;;;;;5032057;28;20504;-87
2021/05/15 02:41:18;;;;;;;1.40;0.80;;;;;;;;;;5032431;28;20447;-89
2021/05/15 02:43:44;;;;;;;0.73;0.60;;;;;;;;;;5033390;28;20485;-89
2021/05/15 02:46:11;;;;;;;1.33;0.83;;;8.30;99.90;;;;;;5031549;28;20458;-89
2021/05/15 02:48:40;;;;;;;0.97;0.70;;;8.50;99.90;;;;;;5032068;28;20513;-88
2021/05/15 02:51:06;;;;;;;3.20;0.73;;;;;;;;;;5032186;28;20470;-89
2021/05/15 02:53:33;;;;;;;0.93;0.87;;;8.40;99.90;;;;;;5032313;28;20443;-87
2021/05/15 02:56:00;;;;;;;0.70;0.60;;;8.40;99.90;;;;;;5031791;28;20432;-88
2021/05/15 02:58:26;;;;;;;1.33;1.00;;;;;;;;;;5032120;28;21013;-90
2021/05/15 03:00:54;;;;;;;0.80;0.80;;;8.10;99.90;;;;;;5032647;28;20528;-87
2021/05/15 03:03:22;;;;;;;0.97;0.60;;;;;;;;;;5040796;28;20450;-86
2021/05/15 03:05:52;;;;;;;0.80;0.70;;;7.90;99.90;;;;;;5039009;28;20478;-90
2021/05/15 03:08:21;;;;;;;1.20;0.80;;;;;;;;;;5045567;28;20434;-89
2021/05/15 03:10:50;;;;;;;1.47;1.00;;;;;;;;;;5045027;28;20938;-89
2021/05/15 03:13:16;;;;;;;1.20;0.70;;;;;;;;;;5046920;28;20792;-89
2021/05/15 03:15:43;;;;;;;1.37;0.97;;;;;;;;;;5043099;28;20530;-90
2021/05/15 03:18:09;;;;;;;1.47;0.70;;;7.60;99.90;;;;;;5045501;28;20434;-88
2021/05/15 03:20:38;;;;;;;1.93;0.90;;;7.70;99.90;;;;;;5045386;28;21040;-88
2021/05/15 03:23:05;;;;;;;1.40;0.80;;;7.70;99.90;;;;;;5044170;28;20501;-89
2021/05/15 03:25:36;;;;;;;1.00;0.73;;;;;;;;;;5043731;28;20458;-88
2021/05/15 03:28:05;;;;;;;0.90;0.60;;;7.60;99.90;;;;;;5046016;28;20451;-88
2021/05/15 03:30:35;;;;;;;1.70;1.10;;;7.60;99.90;;;;;;5041801;28;20495;-88
2021/05/15 03:33:06;;;;;;;2.60;1.30;;;7.60;99.90;;;;;;5043893;28;20968;-89
2021/05/15 03:35:35;;;;;;;1.13;0.90;;;7.60;99.90;;;;;;5025819;28;20439;-88
2021/05/15 03:38:06;;;;;;;1.73;1.03;;;7.60;99.90;;;;;;5045891;28;20454;-89
2021/05/15 03:40:35;;;;;;;1.40;1.00;;;7.60;99.90;;;;;;5042400;28;20485;-88
2021/05/15 03:43:04;;;;;;;1.73;1.50;;;;;;;;;;5043697;28;20469;-90
2021/05/15 03:45:31;;;;;;;2.00;1.67;;;;;;;;;;5042886;28;20779;-89
2021/05/15 03:47:58;;;;;;;1.90;1.33;;;;;;;;;;5044518;28;20439;-90
2021/05/15 03:50:26;;;;;;;2.50;1.30;;;;;;;;;;5043986;28;20487;-90
2021/05/15 03:52:52;;;;;;;2.97;1.40;;;;;;;;;;5037141;28;20459;-90
2021/05/15 03:55:19;;;;;;;2.90;1.63;;;7.60;99.90;;;;;;5035517;28;20443;-90
2021/05/15 03:57:46;;;;;;;1.13;0.93;;;;;;;;;;5035460;28;20455;-90
2021/05/15 04:00:13;;;;;;;0.90;0.70;;;7.70;99.90;;;;;;5034353;28;20448;-90
2021/05/15 04:02:40;;;;;;;0.80;0.80;;;;;;;;;;5035911;28;20431;-90
2021/05/15 04:05:08;;;;;;;1.73;0.97;;;7.60;99.90;;;;;;5035385;28;20428;-91
2021/05/15 04:07:34;;;;;;;2.60;1.23;;;8.10;99.90;;;;;;5035140;28;20789;-90
2021/05/15 04:10:01;;;;;;;3.57;1.07;;;;;;;;;;5042986;28;20487;-90
2021/05/15 04:12:34;;;;;;;1.60;1.37;;;8.20;99.90;;;;;;5035947;28;20444;-90
2021/05/15 04:15:07;;;;;;;3.90;1.63;;;;;;;;;;5033379;28;20455;-88
2021/05/15 04:17:33;;;;;;;1.57;1.10;;;8.00;99.90;;;;;;5035323;28;20853;-87
2021/05/15 04:20:00;;;;;;;3.97;1.10;;;;;;;;;;5035600;28;20467;-88
2021/05/15 04:22:27;;;;;;;1.67;0.90;;;7.80;99.90;;;;;;5043998;28;20444;-87
2021/05/15 04:24:54;;;;;;;1.47;0.67;;;8.00;99.90;;;;;;5037026;28;20448;-87
2021/05/15 04:27:20;;;;;;;1.60;0.90;;;8.30;99.90;;;;;;5035757;28;20535;-88
2021/05/15 04:29:48;;;;;;;0.93;0.83;;;8.40;99.90;;;;;;5033600;28;20486;-89
2021/05/15 04:32:14;;;;;;;3.80;0.90;;;8.30;99.90;;;;;;5034223;28;20451;-89
2021/05/15 04:34:41;;;;;;;1.23;0.73;;;;;;;;;;5033087;28;21167;-89
2021/05/15 04:37:09;;;;;;;1.57;1.03;;;8.30;99.90;;;;;;5037668;28;20447;-89
2021/05/15 04:39:35;;;;;;;0.90;0.80;;;8.40;99.90;;;;;;5042438;28;20489;-87
2021/05/15 04:42:02;;;;;;;1.67;1.23;;;8.30;99.90;;;;;;5042647;28;20455;-88
2021/05/15 04:44:29;;;;;;;8.57;0.80;;;8.40;99.90;;;;;;5042457;28;20451;-88
2021/05/15 04:46:56;;;;;;;1.57;0.80;;;8.40;99.90;;;;;;5044755;28;21028;-87
2021/05/15 04:49:25;;;;;;;0.63;0.43;;;8.50;99.90;;;;;;5036597;28;20513;-89
2021/05/15 04:51:52;;;;;;;0.70;0.70;;;;;;;;;;5034962;28;20460;-88
2021/05/15 04:54:18;;;;;;;1.10;0.70;;;;;;;;;;5030797;28;20517;-89
2021/05/15 04:56:45;;;;;;;0.90;0.80;;;;;;;;;;5042569;28;20542;-89
2021/05/15 04:59:12;;;;;;;3.60;1.10;;;;;;;;;;5032968;28;20456;-91
2021/05/15 05:01:38;;;;;;;1.20;1.00;;;;;;;;;;5033029;28;20448;-88
2021/05/15 05:04:08;;;;;;;1.33;0.80;;;8.70;99.90;;;;;;5033686;28;20443;-87
2021/05/15 05:06:34;;;;;;;1.43;0.80;;;9.10;99.90;;;;;;5033626;28;21026;-90
2021/05/15 05:09:01;;;;;;;0.90;0.70;;;9.10;99.90;;;;;;5033583;28;20483;-87
2021/05/15 05:11:30;;;;;;;1.57;0.90;;;9.10;99.90;;;;;;5033204;28;20939;-87
2021/05/15 05:13:57;;;;;;;1.27;0.60;;;;;;;;;;5032369;28;20514;-90
2021/05/15 05:16:23;;;;;;;0.90;0.60;;;9.40;99.90;;;;;;5034297;28;20955;-88
2021/05/15 05:18:50;;;;;;;0.90;0.83;;;;;;;;;;5033215;28;20467;-88
2021/05/15 05:21:17;;;;;;;0.80;0.80;;;9.60;99.90;;;;;;5033371;28;20534;-88
2021/05/15 05:23:46;;;;;;;1.63;1.00;;;9.70;99.90;;;;;;5032635;28;20508;-89
2021/05/15 05:26:13;;;;;;;1.70;1.00;;;;;;;;;;5033171;28;20463;-89
2021/05/15 05:28:42;;;;;;;1.10;0.80;;;;;;;;;;5033230;28;20481;-88
2021/05/15 05:31:09;;;;;;;0.70;0.70;;;;;;;;;;5032392;28;20451;-89
2021/05/15 05:33:37;;;;;;;1.30;0.60;;;10.30;99.90;;;;;;5033153;28;20989;-88
2021/05/15 05:36:05;;;;;;;2.07;0.80;;;10.20;99.90;;;;;;5033491;28;20447;-90
2021/05/15 05:38:32;;;;;;;0.70;0.60;;;10.10;99.90;;;;;;5032941;28;20459;-89
2021/05/15 05:40:58;;;;;;;1.40;0.67;;;10.30;99.90;;;;;;5032498;28;20456;-88
2021/05/15 05:43:25;;;;;;;3.70;0.70;;;;;;;;;;5032826;28;20923;-88
2021/05/15 05:45:54;;;;;;;1.47;0.70;;;10.00;99.90;;;;;;5031639;28;20451;-89
2021/05/15 05:48:21;;;;;;;2.37;1.00;;;10.00;99.90;;;;;;5032957;28;20459;-88
2021/05/15 05:50:47;;;;;;;1.87;0.80;;;9.80;99.90;;;;;;5039596;28;20486;-88
2021/05/15 05:53:14;;;;;;;0.70;0.50;;;10.50;99.90;;;;;;5053460;28;20512;-88
2021/05/15 05:55:41;;;;;;;0.60;0.57;;;10.30;99.90;;;;;;5053001;28;20447;-90
2021/05/15 05:58:08;;;;;;;0.60;0.50;;;;;;;;;;5052790;28;20525;-89
2021/05/15 06:00:34;;;;;;;1.00;0.60;;;;;;;;;;5052124;28;20470;-88
2021/05/15 06:03:01;;;;;;;1.60;0.60;;;;;;;;;;5052870;28;20442;-88
2021/05/15 06:05:28;;;;;;;1.60;0.57;;;;;;;;;;5034658;28;20537;-89
2021/05/15 06:07:54;;;;;;;4.10;0.67;;;9.70;99.90;;;;;;5052833;28;20458;-88
2021/05/15 06:10:21;;;;;;;0.70;0.60;;;;;;;;;;5051963;28;20494;-89
2021/05/15 06:12:48;;;;;;;0.60;0.50;;;11.10;99.90;;;;;;5036147;28;20923;-87
2021/05/15 06:15:14;;;;;;;0.97;0.60;;;10.90;99.90;;;;;;5041583;28;20431;-90
2021/05/15 06:17:51;;;;;;;1.60;0.60;;;11.60;99.90;;;;;;5042107;28;20444;-89
2021/05/15 06:20:18;;;;;;;0.60;0.43;;;;;;;;;;5039913;28;20938;-89
2021/05/15 06:22:45;;;;;;;1.00;0.57;;;;;;;;;;5040779;28;20859;-88
2021/05/15 06:25:15;;;;;;;7.83;1.07;;;12.40;99.90;;;;;;5043069;28;20435;-88
2021/05/15 06:27:43;;;;;;;0.70;0.60;;;11.80;99.90;;;;;;5039152;28;20448;-88
2021/05/15 06:30:13;;;;;;;0.80;0.47;;;12.30;99.90;;;;;;5040276;28;20537;-89
2021/05/15 06:32:39;;;;;;;0.50;0.43;;;12.40;99.90;;;;;;5038559;28;20440;-90
2021/05/15 06:35:09;;;;;;;0.70;0.60;;;12.40;99.90;;;;;;5045142;28;20435;-92
2021/05/15 06:37:37;;;;;;;1.20;0.50;;;11.90;99.90;;;;;;5046939;28;20432;-91
2021/05/15 06:40:05;;;;;;;2.17;0.90;;;12.90;99.90;;;;;;5051533;28;20842;-92
2021/05/15 06:42:31;;;;;;;3.87;0.60;;;;;;;;;;5041587;28;20528;-91
2021/05/15 06:45:01;;;;;;;1.53;0.60;;;;;;;;;;5044514;28;20451;-90
2021/05/15 06:47:28;;;;;;;0.90;0.70;;;12.60;99.90;;;;;;5043166;28;20439;-91
2021/05/15 06:49:55;;;;;;;1.10;0.80;;;12.90;99.90;;;;;;5047014;28;20494;-93
2021/05/15 06:52:21;;;;;;;1.57;0.60;;;;;;;;;;5046094;28;20443;-92
2021/05/15 06:54:48;;;;;;;0.70;0.50;;;13.10;99.90;;;;;;5048041;28;20451;-91
2021/05/15 06:57:14;;;;;;;1.10;0.80;;;;;;;;;;5047777;28;20434;-93
2021/05/15 06:59:41;;;;;;;0.60;0.50;;;;;;;;;;5045317;28;20450;-91
2021/05/15 07:02:10;;;;;;;1.10;0.70;;;;;;;;;;5045027;28;20443;-91
2021/05/15 07:04:37;;;;;;;0.73;0.73;;;11.80;99.90;;;;;;5047972;28;20546;-91
2021/05/15 07:07:03;;;;;;;1.53;0.70;;;12.10;99.90;;;;;;5048512;28;20484;-91
2021/05/15 07:09:32;;;;;;;2.40;0.70;;;;;;;;;;5022304;28;20495;-92
2021/05/15 07:11:58;;;;;;;0.70;0.60;;;12.20;99.90;;;;;;5035567;28;20487;-92
2021/05/15 07:14:24;;;;;;;0.50;0.30;;;12.10;99.90;;;;;;5034775;28;21071;-90
2021/05/15 07:16:51;;;;;;;1.93;0.80;;;12.20;99.90;;;;;;5038136;28;20443;-92
2021/05/15 07:19:18;;;;;;;1.07;0.67;;;12.20;99.90;;;;;;5037105;28;20490;-90
2021/05/15 07:21:45;;;;;;;1.00;0.50;;;12.40;99.90;;;;;;5034708;28;20452;-90
2021/05/15 07:24:11;;;;;;;2.30;0.80;;;12.10;99.90;;;;;;5035254;28;20877;-91
2021/05/15 07:26:37;;;;;;;0.93;0.70;;;12.30;99.90;;;;;;5038310;28;21009;-91
2021/05/15 07:29:04;;;;;;;0.60;0.40;;;12.20;99.90;;;;;;5056949;28;20478;-90
2021/05/15 07:31:31;;;;;;;1.63;0.40;;;12.20;99.90;;;;;;5060350;28;20499;-89
2021/05/15 07:33:57;;;;;;;0.40;0.30;;;12.20;99.90;;;;;;5058300;28;20446;-91
2021/05/15 07:36:24;;;;;;;2.97;0.70;;;11.70;99.90;;;;;;5058090;28;20910;-89
2021/05/15 07:38:51;;;;;;;0.90;0.43;;;11.70;99.90;;;;;;5054954;28;20485;-90
2021/05/15 07:41:18;;;;;;;0.63;0.63;;;;;;;;;;5056497;28;20450;-89
2021/05/15 07:43:44;;;;;;;0.70;0.60;;;12.00;99.90;;;;;;5056207;28;20455;-90
2021/05/15 07:46:11;;;;;;;2.10;0.50;;;13.00;99.90;;;;;;5054439;28;20443;-90
2021/05/15 07:48:39;;;;;;;1.00;0.63;;;12.60;99.90;;;;;;5056357;28;20525;-92
2021/05/15 07:51:08;;;;;;;0.50;0.47;;;12.10;99.90;;;;;;5058114;28;20458;-92
2021/05/15 07:53:34;;;;;;;0.63;0.40;;;12.40;99.90;;;;;;5057059;28;20438;-93
2021/05/15 07:56:02;;;;;;;1.17;0.87;;;12.20;99.90;;;;;;5056367;28;20450;-92
2021/05/15 07:58:29;;;;;;;1.13;0.60;;;10.20;99.90;;;;;;5056352;28;20557;-92
2021/05/15 08:00:56;;;;;;;2.60;0.80;;;12.40;99.90;;;;;;5055786;28;20450;-92
2021/05/15 08:03:22;;;;;;;2.20;0.57;;;;;;;;;;5056821;28;20446;-93
2021/05/15 08:05:49;;;;;;;2.70;0.80;;;12.10;99.90;;;;;;5057456;28;20478;-90
2021/05/15 08:08:15;;;;;;;1.83;0.93;;;12.40;99.90;;;;;;5058640;28;20595;-92
2021/05/15 08:10:42;;;;;;;2.77;0.40;;;;;;;;;;5058159;28;20533;-92
2021/05/15 08:13:09;;;;;;;0.70;0.50;;;12.50;99.90;;;;;;5056926;28;20459;-90
2021/05/15 08:15:36;;;;;;;1.93;0.70;;;;;;;;;;5056100;28;20866;-89
2021/05/15 08:18:02;;;;;;;1.33;0.67;;;12.10;99.90;;;;;;5056767;28;20515;-92
2021/05/15 08:20:29;;;;;;;0.60;0.60;;;12.10;99.90;;;;;;5055244;28;20450;-91
2021/05/15 08:22:56;;;;;;;1.57;0.77;;;11.90;99.90;;;;;;5055453;28;20446;-89
2021/05/15 08:25:25;;;;;;;0.40;0.40;;;12.00;99.90;;;;;;5057260;28;20462;-90
2021/05/15 08:27:53;;;;;;;1.33;0.73;;;11.90;99.90;;;;;;5056096;28;20957;-91
2021/05/15 08:30:22;;;;;;;1.17;0.70;;;12.10;99.90;;;;;;5057175;28;20580;-90
2021/05/15 08:32:50;;;;;;;0.83;0.63;;;12.10;99.90;;;;;;5057542;28;20460;-91
2021/05/15 08:35:17;;;;;;;0.70;0.60;;;12.20;99.90;;;;;;5056517;28;20446;-89
2021/05/15 08:37:44;;;;;;;1.13;0.60;;;12.50;99.90;;;;;;5057220;28;20456;-89
2021/05/15 08:40:11;;;;;;;0.63;0.60;;;12.20;99.90;;;;;;5057168;28;20454;-92
2021/05/15 08:42:39;;;;;;;1.07;0.63;;;12.60;99.90;;;;;;5055987;28;20450;-92
2021/05/15 08:45:08;;;;;;;1.30;0.87;;;12.50;99.90;;;;;;5054321;28;20489;-92
2021/05/15 08:47:37;;;;;;;0.70;0.63;;;12.50;99.90;;;;;;5056074;28;20965;-91
2021/05/15 08:50:07;;;;;;;3.70;1.03;;;12.60;99.90;;;;;;5055395;28;20523;-89
2021/05/15 08:52:36;;;;;;;6.63;0.70;;;12.50;99.90;;;;;;5063014;28;20451;-89
2021/05/15 08:55:04;;;;;;;0.97;0.80;;;12.60;99.90;;;;;;5059074;28;20459;-91
2021/05/15 08:57:31;;;;;;;2.63;1.17;;;;;;;;;;5054732;28;20447;-92
2021/05/15 08:59:58;;;;;;;1.17;0.60;;;;;;;;;;5053893;28;20447;-90
2021/05/15 09:02:24;;;;;;;2.67;0.80;;;;;;;;;;5056070;28;20500;-92
2021/05/15 09:04:52;;;;;;;0.60;0.60;;;13.00;99.90;;;;;;5056524;28;20934;-93
2021/05/15 09:07:18;;;;;;;1.17;0.80;;;13.20;99.90;;;;;;5055045;28;20478;-91
2021/05/15 09:09:44;;;;;;;1.73;0.70;;;13.30;99.90;;;;;;5054114;28;20498;-92
2021/05/15 09:12:11;;;;;;;2.10;0.83;;;13.20;99.90;;;;;;5054247;28;20447;-91
2021/05/15 09:14:37;;;;;;;1.50;0.63;;;13.10;99.90;;;;;;5053814;28;20435;-92
2021/05/15 09:17:03;;;;;;;1.67;0.93;;;13.30;99.90;;;;;;5055522;28;20470;-91
2021/05/15 09:19:30;;;;;;;2.40;0.90;;;13.40;99.90;;;;;;5056543;28;20470;-90
2021/05/15 09:22:00;;;;;;;2.20;1.00;;;13.30;99.90;;;;;;5054860;28;20443;-91
2021/05/15 09:24:32;;;;;;;1.80;0.73;;;13.20;99.90;;;;;;5055833;28;20443;-92
2021/05/15 09:27:00;;;;;;;0.70;0.70;;;13.30;99.90;;;;;;5054710;28;20945;-91
2021/05/15 09:29:27;;;;;;;1.20;0.60;;;13.50;99.90;;;;;;5053384;28;21030;-92
2021/05/15 09:31:53;;;;;;;0.60;0.60;;;14.20;99.90;;;;;;5054436;28;20450;-90
2021/05/15 09:34:21;;;;;;;2.20;0.73;;;14.10;99.90;;;;;;5054763;28;20446;-92
2021/05/15 09:36:48;;;;;;;1.20;0.80;;;14.20;99.90;;;;;;5055734;28;20478;-93
2021/05/15 09:39:19;;;;;;;0.97;0.80;;;14.50;99.90;;;;;;5054081;28;20497;-92
2021/05/15 09:41:48;;;;;;;2.07;0.70;;;14.70;99.90;;;;;;5054222;28;20473;-91
2021/05/15 09:44:17;;;;;;;1.07;0.63;;;14.40;99.90;;;;;;5054065;28;20575;-93
2021/05/15 09:46:46;;;;;;;3.40;1.10;;;14.40;99.90;;;;;;5054909;28;20447;-90
2021/05/15 09:49:14;;;;;;;0.70;0.70;;;14.20;99.90;;;;;;5055279;28;20482;-91
2021/05/15 09:51:50;;;;;;;0.90;0.80;;;13.90;99.90;;;;;;5054583;28;20447;-93
2021/05/15 09:54:19;;;;;;;1.20;0.83;;;13.80;99.90;;;;;;5054802;28;20495;-93
2021/05/15 09:56:56;;;;;;;0.80;0.80;;;14.40;99.90;;;;;;5054616;28;20860;-93
2021/05/15 09:59:30;;;;;;;1.13;0.73;;;13.90;99.90;;;;;;5053598;28;20461;-92
2021/05/15 10:01:58;;;;;;;0.97;0.80;;;14.10;99.90;;;;;;5053473;28;20443;-92
2021/05/15 10:04:24;;;;;;;2.13;1.10;;;13.90;99.90;;;;;;5051305;28;20804;-91
2021/05/15 10:06:51;;;;;;;1.00;1.00;;;;;;;;;;5052923;28;20876;-93
2021/05/15 10:09:32;;;;;;;1.40;0.80;;;14.20;99.90;;;;;;5053806;28;20509;-91
2021/05/15 10:11:59;;;;;;;1.63;0.90;;;13.60;99.90;;;;;;5053911;28;20468;-92
2021/05/15 10:14:26;;;;;;;5.03;0.73;;;13.80;99.90;;;;;;5052554;28;20811;-91
2021/05/15 10:16:53;;;;;;;1.10;0.93;;;13.50;99.90;;;;;;5053591;28;20470;-93
2021/05/15 10:19:20;;;;;;;1.97;1.47;;;13.30;99.90;;;;;;5053398;28;20455;-91
2021/05/15 10:21:47;;;;;;;1.57;0.80;;;13.40;99.90;;;;;;5056247;28;21068;-92
2021/05/15 10:24:21;;;;;;;3.03;0.70;;;13.60;99.90;;;;;;5058871;28;20527;-91
2021/05/15 10:26:56;;;;;;;1.20;1.10;;;14.50;99.90;;;;;;5055681;28;20771;-90
2021/05/15 10:29:33;;;;;;;0.80;0.80;;;14.60;99.90;;;;;;5054287;28;20494;-91
2021/05/15 10:32:00;;;;;;;2.77;0.80;;;14.40;99.90;;;;;;5055240;28;20473;-90
2021/05/15 10:34:31;;;;;;;1.60;1.10;;;14.70;99.90;;;;;;5054647;28;20515;-92
2021/05/15 10:36:58;;;;;;;2.70;0.90;;;15.30;99.90;;;;;;5055306;28;20442;-91
2021/05/15 10:39:28;;;;;;;2.20;0.83;;;15.20;99.90;;;;;;5054671;28;20512;-93
2021/05/15 10:41:56;;;;;;;0.90;0.53;;;14.80;99.90;;;;;;5051311;28;20514;-92
2021/05/15 10:44:23;;;;;;;1.47;0.50;;;14.70;99.90;;;;;;5051844;28;20443;-89
2021/05/15 10:46:50;;;;;;;1.67;1.17;;;14.80;98.30;;;;;;5054734;28;20462;-92
2021/05/15 10:49:20;;;;;;;1.90;0.90;;;14.30;99.90;;;;;;5054335;28;20475;-90
2021/05/15 10:51:48;;;;;;;2.53;1.13;;;14.20;97.50;;;;;;5053402;28;20534;-91
2021/05/15 10:54:17;;;;;;;1.37;0.80;;;14.00;99.90;;;;;;5053009;28;20447;-92
2021/05/15 10:56:49;;;;;;;1.33;0.70;;;14.50;99.90;;;;;;5052986;28;20439;-92
2021/05/15 10:59:22;;;;;;;3.43;1.10;;;14.50;99.90;;;;;;5051560;28;20470;-91
2021/05/15 11:01:51;;;;;;;0.80;0.60;;;14.20;99.90;;;;;;5050258;28;20446;-91
2021/05/15 11:04:26;;;;;;;3.07;0.90;;;13.90;99.90;;;;;;5057239;28;20454;-90
2021/05/15 11:06:57;;;;;;;1.00;0.70;;;14.10;99.90;;;;;;5062947;28;20478;-92
2021/05/15 11:09:25;;;;;;;1.10;0.70;;;14.00;99.90;;;;;;5053144;28;20490;-91
2021/05/15 11:11:52;;;;;;;2.03;0.70;;;13.80;99.90;;;;;;5052991;28;20450;-92
2021/05/15 11:14:27;;;;;;;1.73;0.80;;;13.90;99.90;;;;;;5050064;28;20457;-91
2021/05/15 11:17:08;;;;;;;1.70;1.07;;;13.80;99.90;;;;;;5052839;28;20474;-92
2021/05/15 11:19:35;;;;;;;2.80;0.83;;;13.90;99.90;;;;;;5052738;28;20533;-90
2021/05/15 11:22:02;;;;;;;0.93;0.83;;;14.20;99.90;;;;;;5054236;28;20458;-94
2021/05/15 11:24:30;;;;;;;2.30;1.47;;;14.10;99.90;;;;;;5057430;28;20459;-91
2021/05/15 11:26:59;;;;;;;1.37;1.00;;;13.90;99.90;;;;;;5057609;28;20914;-90
2021/05/15 11:29:35;;;;;;;1.07;0.87;;;14.20;99.90;;;;;;5055450;28;20486;-92
2021/05/15 11:32:09;;;;;;;2.60;0.77;;;14.20;99.90;;;;;;5057358;28;20450;-90
2021/05/15 11:34:36;;;;;;;0.70;0.53;;;14.10;99.90;;;;;;5056721;28;20446;-92
2021/05/15 11:37:03;;;;;;;0.87;0.67;;;14.00;99.90;;;;;;5057079;28;20451;-93
2021/05/15 11:39:30;;;;;;;1.67;1.00;;;;;;;;;;5056974;28;20459;-92
2021/05/15 11:42:06;;;;;;;1.10;0.90;;;15.00;99.90;;;;;;5056265;28;20505;-89
2021/05/15 11:44:35;;;;;;;0.80;0.60;;;15.50;99.90;;;;;;5056143;28;20454;-93
2021/05/15 11:47:03;;;;;;;2.47;1.03;;;15.60;99.90;;;;;;5055851;28;20545;-92
2021/05/15 11:49:29;;;;;;;2.73;0.80;;;16.00;99.90;;;;;;5055823;28;20483;-92
2021/05/15 11:52:01;;;;;;;2.60;0.70;;;15.60;99.90;;;;;;5055430;28;20450;-92
2021/05/15 11:54:27;;;;;;;0.97;0.50;;;14.90;99.90;;;;;;5056085;28;20534;-91
2021/05/15 11:56:56;;;;;;;1.73;0.63;;;15.10;99.90;;;;;;5055977;28;20446;-93
2021/05/15 11:59:23;;;;;;;2.50;0.77;;;;;;;;;;5054151;28;20466;-91
2021/05/15 12:01:49;;;;;;;0.63;0.53;;;15.20;99.90;;;;;;5055418;28;20537;-92
2021/05/15 12:04:22;;;;;;;2.50;0.70;;;15.20;99.90;;;;;;5057415;28;20934;-91
2021/05/15 12:06:54;;;;;;;5.70;0.80;;;15.70;99.90;;;;;;5056181;28;20577;-93
2021/05/15 12:09:21;;;;;;;0.90;0.60;;;15.20;99.90;;;;;;5055561;28;20477;-91
2021/05/15 12:11:48;;;;;;;0.50;0.50;;;15.30;94.70;;;;;;5056951;28;20474;-92
2021/05/15 12:14:19;;;;;;;1.40;0.80;;;15.30;99.90;;;;;;5055886;28;20430;-92
2021/05/15 12:16:45;;;;;;;2.50;0.80;;;15.30;99.90;;;;;;5056413;28;20463;-91
2021/05/15 12:19:20;;;;;;;3.90;0.87;;;15.30;99.90;;;;;;5053437;28;20442;-92
2021/05/15 12:21:58;;;;;;;2.13;0.60;;;15.40;99.90;;;;;;5055939;28;20415;-92
2021/05/15 12:24:31;;;;;;;6.23;0.73;;;15.20;95.80;;;;;;5056429;28;20435;-92
2021/05/15 12:27:09;;;;;;;1.53;0.97;;;15.40;99.90;;;;;;5057314;28;20771;-92
2021/05/15 12:29:37;;;;;;;1.10;0.70;;;;;;;;;;5052422;28;20535;-92
2021/05/15 12:32:04;;;;;;;1.47;0.60;;;15.90;99.90;;;;;;5043678;28;20522;-91
2021/05/15 12:34:31;;;;;;;1.73;0.87;;;15.40;99.90;;;;;;5044159;28;20822;-93
2021/05/15 12:36:58;;;;;;;1.73;0.70;;;15.90;99.90;;;;;;5045802;28;20450;-90
2021/05/15 12:39:33;;;;;;;3.13;0.63;;;15.70;99.90;;;;;;5046419;28;20434;-91
2021/05/15 12:42:00;;;;;;;2.80;0.80;;;15.70;99.90;;;;;;5044107;28;20798;-93
2021/05/15 12:44:37;;;;;;;2.90;1.07;;;15.30;99.80;;;;;;5044706;28;20446;-91
2021/05/15 12:47:03;;;;;;;2.20;0.90;;;15.30;99.90;;;;;;5041924;28;20454;-92
2021/05/15 12:49:36;;;;;;;1.10;0.60;;;14.90;99.90;;;;;;5045128;28;20485;-89
2021/05/15 12:52:18;;;;;;;3.10;0.80;;;15.10;99.90;;;;;;5041488;28;20439;-91
2021/05/15 12:54:45;;;;;;;2.43;1.10;;;14.90;99.90;;;;;;5042621;28;20501;-92
2021/05/15 12:57:16;;;;;;;1.90;0.90;;;15.30;99.90;;;;;;5044137;28;20434;-91
2021/05/15 12:59:45;;;;;;;3.50;1.10;;;14.80;95.30;;;;;;5040649;28;20539;-91
2021/05/15 13:02:14;;;;;;;0.77;0.63;;;15.00;99.90;;;;;;5046129;28;20455;-87
2021/05/15 13:04:44;;;;;;;1.83;0.80;;;14.90;99.90;;;;;;5036760;28;20461;-89
2021/05/15 13:07:10;;;;;;;2.30;0.60;;;14.90;99.90;;;;;;5035249;28;20494;-91
2021/05/15 13:09:45;;;;;;;3.57;1.00;;;14.90;99.90;;;;;;5034294;28;20479;-88
2021/05/15 13:12:12;;;;;;;2.30;0.97;;;14.40;99.90;;;;;;5033773;28;20454;-90
2021/05/15 13:14:38;;;;;;;1.03;0.80;;;;;;;;;;5034574;28;20455;-91
2021/05/15 13:17:05;;;;;;;2.00;0.67;;;;;;;;;;5034651;28;20485;-89
2021/05/15 13:19:31;;;;;;;2.13;0.77;;;14.50;99.90;;;;;;5036443;28;20431;-90
2021/05/15 13:21:59;;;;;;;0.60;0.40;;;14.70;95.80;;;;;;5035443;28;20585;-85